Airport ICAO


07:25 UTC

12°C


An affordable passengers' Moving Map for your aircraft. Made for the iPad and the iPhone
More information here

EGLL Heathrow


London UNITED KINGDOM   VFR


METAR EGLL 200720Z AUTO 21004KT 170V290 9999 NCD 12/11 Q1019 NOSIG 0h05min

TAF EGLL 200503Z 2006/2112 21005KT 9999 SCT045 TEMPO 2006/2008 7000 PROB40 TEMPO 2006/2007 3500 BR PROB30 TEMPO 2008/2010 BKN012 2h22min





NOTAMS

OPEN